sensor_id;sensor_type;location;lat;lon;timestamp;temperature;humidity
31661;DHT22;18267;52.234;7.444;2023-12-04T00:01:14;2.10;99.90
31661;DHT22;18267;52.234;7.444;2023-12-04T00:03:40;2.10;99.90
31661;DHT22;18267;52.234;7.444;2023-12-04T00:06:06;2.00;99.90
31661;DHT22;18267;52.234;7.444;2023-12-04T00:08:32;2.00;99.90
31661;DHT22;18267;52.234;7.444;2023-12-04T00:10:58;2.10;99.90
31661;DHT22;18267;52.234;7.444;2023-12-04T00:13:23;1.90;99.90
31661;DHT22;18267;52.234;7.444;2023-12-04T00:15:49;1.90;99.90
31661;DHT22;18267;52.234;7.444;2023-12-04T00:18:15;2.00;99.90
31661;DHT22;18267;52.234;7.444;2023-12-04T00:20:40;2.00;99.90
31661;DHT22;18267;52.234;7.444;2023-12-04T00:23:05;2.20;99.90
31661;DHT22;18267;52.234;7.444;2023-12-04T00:25:31;2.20;99.90
31661;DHT22;18267;52.234;7.444;2023-12-04T00:27:57;2.20;99.90
31661;DHT22;18267;52.234;7.444;2023-12-04T00:30:22;2.00;99.90
31661;DHT22;18267;52.234;7.444;2023-12-04T00:32:48;2.00;99.90
31661;DHT22;18267;52.234;7.444;2023-12-04T00:35:14;1.90;99.90
31661;DHT22;18267;52.234;7.444;2023-12-04T00:37:39;1.80;99.90
31661;DHT22;18267;52.234;7.444;2023-12-04T00:40:06;1.90;99.90
31661;DHT22;18267;52.234;7.444;2023-12-04T00:42:32;2.00;99.90
31661;DHT22;18267;52.234;7.444;2023-12-04T00:44:58;2.00;99.90
31661;DHT22;18267;52.234;7.444;2023-12-04T00:47:23;2.00;99.90
31661;DHT22;18267;52.234;7.444;2023-12-04T00:49:49;2.10;99.90
31661;DHT22;18267;52.234;7.444;2023-12-04T00:52:14;2.10;99.90
31661;DHT22;18267;52.234;7.444;2023-12-04T00:54:40;2.10;99.90
31661;DHT22;18267;52.234;7.444;2023-12-04T00:57:08;2.00;99.90
31661;DHT22;18267;52.234;7.444;2023-12-04T00:59:34;2.10;99.90
31661;DHT22;18267;52.234;7.444;2023-12-04T01:02:00;2.20;99.90
31661;DHT22;18267;52.234;7.444;2023-12-04T01:04:25;2.20;99.90
31661;DHT22;18267;52.234;7.444;2023-12-04T01:06:52;2.20;99.90
31661;DHT22;18267;52.234;7.444;2023-12-04T01:09:17;2.20;99.90
31661;DHT22;18267;52.234;7.444;2023-12-04T01:11:43;2.20;99.90
31661;DHT22;18267;52.234;7.444;2023-12-04T01:14:09;2.10;99.90
31661;DHT22;18267;52.234;7.444;2023-12-04T01:16:34;2.10;99.90
31661;DHT22;18267;52.234;7.444;2023-12-04T01:19:00;2.20;99.90
31661;DHT22;18267;52.234;7.444;2023-12-04T01:21:25;2.20;99.90
31661;DHT22;18267;52.234;7.444;2023-12-04T01:23:51;2.30;99.90
31661;DHT22;18267;52.234;7.444;2023-12-04T01:26:16;2.20;99.90
31661;DHT22;18267;52.234;7.444;2023-12-04T01:28:42;2.10;99.90
31661;DHT22;18267;52.234;7.444;2023-12-04T01:31:07;2.10;99.90
31661;DHT22;18267;52.234;7.444;2023-12-04T01:33:33;2.10;99.90
31661;DHT22;18267;52.234;7.444;2023-12-04T01:35:58;2.10;99.90
31661;DHT22;18267;52.234;7.444;2023-12-04T01:38:24;2.20;99.90
31661;DHT22;18267;52.234;7.444;2023-12-04T01:40:49;2.20;99.90
31661;DHT22;18267;52.234;7.444;2023-12-04T01:43:16;2.10;99.90
31661;DHT22;18267;52.234;7.444;2023-12-04T01:45:41;2.20;99.90
31661;DHT22;18267;52.234;7.444;2023-12-04T01:48:07;2.30;99.90
31661;DHT22;18267;52.234;7.444;2023-12-04T01:50:35;2.30;99.90
31661;DHT22;18267;52.234;7.444;2023-12-04T01:53:01;2.30;99.90
31661;DHT22;18267;52.234;7.444;2023-12-04T01:55:28;2.30;99.90
31661;DHT22;18267;52.234;7.444;2023-12-04T01:57:54;2.20;99.90
31661;DHT22;18267;52.234;7.444;2023-12-04T02:00:39;2.20;99.90
31661;DHT22;18267;52.234;7.444;2023-12-04T02:03:05;2.30;99.90
31661;DHT22;18267;52.234;7.444;2023-12-04T02:05:31;2.30;99.90
31661;DHT22;18267;52.234;7.444;2023-12-04T02:07:58;2.20;99.90
31661;DHT22;18267;52.234;7.444;2023-12-04T02:10:24;2.30;99.90
31661;DHT22;18267;52.234;7.444;2023-12-04T02:12:50;2.30;99.90
31661;DHT22;18267;52.234;7.444;2023-12-04T02:15:16;2.30;99.90
31661;DHT22;18267;52.234;7.444;2023-12-04T02:17:43;2.20;99.90
31661;DHT22;18267;52.234;7.444;2023-12-04T02:20:12;2.20;99.90
31661;DHT22;18267;52.234;7.444;2023-12-04T02:22:37;2.30;99.90
31661;DHT22;18267;52.234;7.444;2023-12-04T02:25:04;2.40;99.90
31661;DHT22;18267;52.234;7.444;2023-12-04T02:27:38;2.40;99.90
31661;DHT22;18267;52.234;7.444;2023-12-04T02:30:06;2.40;99.90
31661;DHT22;18267;52.234;7.444;2023-12-04T02:32:35;2.40;99.90
31661;DHT22;18267;52.234;7.444;2023-12-04T02:35:04;2.40;99.90
31661;DHT22;18267;52.234;7.444;2023-12-04T02:37:30;2.30;99.90
31661;DHT22;18267;52.234;7.444;2023-12-04T02:39:56;2.30;99.90
31661;DHT22;18267;52.234;7.444;2023-12-04T02:42:24;2.30;99.90
31661;DHT22;18267;52.234;7.444;2023-12-04T02:44:51;2.30;99.90
31661;DHT22;18267;52.234;7.444;2023-12-04T02:47:17;2.30;99.90
31661;DHT22;18267;52.234;7.444;2023-12-04T02:49:43;2.40;99.90
31661;DHT22;18267;52.234;7.444;2023-12-04T02:52:08;2.40;99.90
31661;DHT22;18267;52.234;7.444;2023-12-04T02:54:34;2.40;99.90
31661;DHT22;18267;52.234;7.444;2023-12-04T02:56:59;2.50;99.90
31661;DHT22;18267;52.234;7.444;2023-12-04T02:59:25;2.50;99.90
31661;DHT22;18267;52.234;7.444;2023-12-04T03:01:53;2.40;99.90
31661;DHT22;18267;52.234;7.444;2023-12-04T03:04:21;2.50;99.90
31661;DHT22;18267;52.234;7.444;2023-12-04T03:06:47;2.50;99.90
31661;DHT22;18267;52.234;7.444;2023-12-04T03:09:12;2.40;99.90
31661;DHT22;18267;52.234;7.444;2023-12-04T03:11:41;2.30;99.90
31661;DHT22;18267;52.234;7.444;2023-12-04T03:14:07;2.30;99.90
31661;DHT22;18267;52.234;7.444;2023-12-04T03:16:33;2.20;99.90
31661;DHT22;18267;52.234;7.444;2023-12-04T03:18:59;2.10;99.90
31661;DHT22;18267;52.234;7.444;2023-12-04T03:21:24;2.20;99.90
31661;DHT22;18267;52.234;7.444;2023-12-04T03:23:50;2.20;99.90
31661;DHT22;18267;52.234;7.444;2023-12-04T03:26:16;2.10;99.90
31661;DHT22;18267;52.234;7.444;2023-12-04T03:28:41;2.10;99.90
31661;DHT22;18267;52.234;7.444;2023-12-04T03:31:07;2.10;99.90
31661;DHT22;18267;52.234;7.444;2023-12-04T03:33:32;2.10;99.90
31661;DHT22;18267;52.234;7.444;2023-12-04T03:36:01;2.10;99.90
31661;DHT22;18267;52.234;7.444;2023-12-04T03:38:27;2.10;99.90
31661;DHT22;18267;52.234;7.444;2023-12-04T03:40:53;2.00;99.90
31661;DHT22;18267;52.234;7.444;2023-12-04T03:43:18;2.00;99.90
31661;DHT22;18267;52.234;7.444;2023-12-04T03:45:44;2.00;99.90
31661;DHT22;18267;52.234;7.444;2023-12-04T03:48:09;2.00;99.90
31661;DHT22;18267;52.234;7.444;2023-12-04T03:50:35;2.00;99.90
31661;DHT22;18267;52.234;7.444;2023-12-04T03:53:01;2.00;99.90
31661;DHT22;18267;52.234;7.444;2023-12-04T03:55:26;1.90;99.90
31661;DHT22;18267;52.234;7.444;2023-12-04T03:57:53;1.80;99.90
31661;DHT22;18267;52.234;7.444;2023-12-04T04:00:18;1.90;99.90
31661;DHT22;18267;52.234;7.444;2023-12-04T04:02:44;1.90;99.90
31661;DHT22;18267;52.234;7.444;2023-12-04T04:05:10;1.90;99.90
31661;DHT22;18267;52.234;7.444;2023-12-04T04:07:35;1.80;99.90
31661;DHT22;18267;52.234;7.444;2023-12-04T04:10:01;2.00;99.90
31661;DHT22;18267;52.234;7.444;2023-12-04T04:12:27;2.00;99.90
31661;DHT22;18267;52.234;7.444;2023-12-04T04:14:53;2.00;99.90
31661;DHT22;18267;52.234;7.444;2023-12-04T04:17:19;1.90;99.90
31661;DHT22;18267;52.234;7.444;2023-12-04T04:19:44;1.90;99.90
31661;DHT22;18267;52.234;7.444;2023-12-04T04:22:10;1.70;99.90
31661;DHT22;18267;52.234;7.444;2023-12-04T04:24:36;1.80;99.90
31661;DHT22;18267;52.234;7.444;2023-12-04T04:27:01;1.80;99.90
31661;DHT22;18267;52.234;7.444;2023-12-04T04:29:27;1.90;99.90
31661;DHT22;18267;52.234;7.444;2023-12-04T04:31:53;1.90;99.90
31661;DHT22;18267;52.234;7.444;2023-12-04T04:34:21;1.90;99.90
31661;DHT22;18267;52.234;7.444;2023-12-04T04:36:46;1.90;99.90
31661;DHT22;18267;52.234;7.444;2023-12-04T04:39:13;1.90;99.90
31661;DHT22;18267;52.234;7.444;2023-12-04T04:41:39;1.90;99.90
31661;DHT22;18267;52.234;7.444;2023-12-04T04:44:05;2.00;99.90
31661;DHT22;18267;52.234;7.444;2023-12-04T04:46:31;1.90;99.90
31661;DHT22;18267;52.234;7.444;2023-12-04T04:48:56;1.80;99.90
31661;DHT22;18267;52.234;7.444;2023-12-04T04:51:22;1.90;99.90
31661;DHT22;18267;52.234;7.444;2023-12-04T04:53:48;1.90;99.90
31661;DHT22;18267;52.234;7.444;2023-12-04T04:56:14;1.90;99.90
31661;DHT22;18267;52.234;7.444;2023-12-04T04:58:40;2.10;99.90
31661;DHT22;18267;52.234;7.444;2023-12-04T05:01:06;2.10;99.90
31661;DHT22;18267;52.234;7.444;2023-12-04T05:03:31;2.10;99.90
31661;DHT22;18267;52.234;7.444;2023-12-04T05:05:57;2.20;99.90
31661;DHT22;18267;52.234;7.444;2023-12-04T05:08:23;2.10;99.90
31661;DHT22;18267;52.234;7.444;2023-12-04T05:10:48;2.00;99.90
31661;DHT22;18267;52.234;7.444;2023-12-04T05:13:14;2.00;99.90
31661;DHT22;18267;52.234;7.444;2023-12-04T05:15:39;1.90;99.90
31661;DHT22;18267;52.234;7.444;2023-12-04T05:18:05;2.00;99.90
31661;DHT22;18267;52.234;7.444;2023-12-04T05:20:30;2.00;99.90
31661;DHT22;18267;52.234;7.444;2023-12-04T05:22:57;1.90;99.90
31661;DHT22;18267;52.234;7.444;2023-12-04T05:25:22;1.90;99.90
31661;DHT22;18267;52.234;7.444;2023-12-04T05:27:48;2.10;99.90
31661;DHT22;18267;52.234;7.444;2023-12-04T05:30:14;2.10;99.90
31661;DHT22;18267;52.234;7.444;2023-12-04T05:32:39;2.00;99.90
31661;DHT22;18267;52.234;7.444;2023-12-04T05:35:05;2.00;99.90
31661;DHT22;18267;52.234;7.444;2023-12-04T05:37:31;2.00;99.90
31661;DHT22;18267;52.234;7.444;2023-12-04T05:39:57;2.00;99.90
31661;DHT22;18267;52.234;7.444;2023-12-04T05:42:23;2.00;99.90
31661;DHT22;18267;52.234;7.444;2023-12-04T05:44:48;2.00;99.90
31661;DHT22;18267;52.234;7.444;2023-12-04T05:47:14;1.90;99.90
31661;DHT22;18267;52.234;7.444;2023-12-04T05:49:40;1.90;99.90
31661;DHT22;18267;52.234;7.444;2023-12-04T05:52:06;1.90;99.90
31661;DHT22;18267;52.234;7.444;2023-12-04T05:54:31;2.00;99.90
31661;DHT22;18267;52.234;7.444;2023-12-04T05:56:57;2.10;99.90
31661;DHT22;18267;52.234;7.444;2023-12-04T05:59:22;2.20;99.90
31661;DHT22;18267;52.234;7.444;2023-12-04T06:01:48;2.10;99.90
31661;DHT22;18267;52.234;7.444;2023-12-04T06:04:13;2.10;99.90
31661;DHT22;18267;52.234;7.444;2023-12-04T06:06:39;2.00;99.90
31661;DHT22;18267;52.234;7.444;2023-12-04T06:09:05;2.20;99.90
31661;DHT22;18267;52.234;7.444;2023-12-04T06:11:30;2.20;99.90
31661;DHT22;18267;52.234;7.444;2023-12-04T06:13:56;2.10;99.90
31661;DHT22;18267;52.234;7.444;2023-12-04T06:16:22;2.20;99.90
31661;DHT22;18267;52.234;7.444;2023-12-04T06:18:47;2.20;99.90
31661;DHT22;18267;52.234;7.444;2023-12-04T06:21:13;2.10;99.90
31661;DHT22;18267;52.234;7.444;2023-12-04T06:23:38;2.10;99.90
31661;DHT22;18267;52.234;7.444;2023-12-04T06:26:04;2.10;99.90
31661;DHT22;18267;52.234;7.444;2023-12-04T06:28:31;2.10;99.90
31661;DHT22;18267;52.234;7.444;2023-12-04T06:30:58;2.10;99.90
31661;DHT22;18267;52.234;7.444;2023-12-04T06:33:24;2.20;99.90
31661;DHT22;18267;52.234;7.444;2023-12-04T06:35:49;2.20;99.90
31661;DHT22;18267;52.234;7.444;2023-12-04T06:38:16;2.20;99.90
31661;DHT22;18267;52.234;7.444;2023-12-04T06:40:44;2.20;99.90
31661;DHT22;18267;52.234;7.444;2023-12-04T06:43:10;2.20;99.90
31661;DHT22;18267;52.234;7.444;2023-12-04T06:45:36;2.20;99.90
31661;DHT22;18267;52.234;7.444;2023-12-04T06:48:01;2.20;99.90
31661;DHT22;18267;52.234;7.444;2023-12-04T06:50:27;2.20;99.90
31661;DHT22;18267;52.234;7.444;2023-12-04T06:52:53;2.30;99.90
31661;DHT22;18267;52.234;7.444;2023-12-04T06:55:19;2.20;99.90
31661;DHT22;18267;52.234;7.444;2023-12-04T06:57:44;2.30;99.90
31661;DHT22;18267;52.234;7.444;2023-12-04T07:00:10;2.30;99.90
31661;DHT22;18267;52.234;7.444;2023-12-04T07:02:40;2.20;99.90
31661;DHT22;18267;52.234;7.444;2023-12-04T07:05:06;2.20;99.90
31661;DHT22;18267;52.234;7.444;2023-12-04T07:07:31;2.30;99.90
31661;DHT22;18267;52.234;7.444;2023-12-04T07:09:57;2.20;99.90
31661;DHT22;18267;52.234;7.444;2023-12-04T07:12:22;2.30;99.90
31661;DHT22;18267;52.234;7.444;2023-12-04T07:14:48;2.30;99.90
31661;DHT22;18267;52.234;7.444;2023-12-04T07:17:13;2.30;99.90
31661;DHT22;18267;52.234;7.444;2023-12-04T07:19:41;2.20;99.90
31661;DHT22;18267;52.234;7.444;2023-12-04T07:22:07;2.10;99.90
31661;DHT22;18267;52.234;7.444;2023-12-04T07:24:32;2.10;99.90
31661;DHT22;18267;52.234;7.444;2023-12-04T07:26:58;2.20;99.90
31661;DHT22;18267;52.234;7.444;2023-12-04T07:29:24;2.30;99.90
31661;DHT22;18267;52.234;7.444;2023-12-04T07:31:49;2.30;99.90
31661;DHT22;18267;52.234;7.444;2023-12-04T07:34:15;2.20;99.90
31661;DHT22;18267;52.234;7.444;2023-12-04T07:36:41;2.30;99.90
31661;DHT22;18267;52.234;7.444;2023-12-04T07:39:06;2.10;99.90
31661;DHT22;18267;52.234;7.444;2023-12-04T07:41:32;2.20;99.90
31661;DHT22;18267;52.234;7.444;2023-12-04T07:43:58;2.20;99.90
31661;DHT22;18267;52.234;7.444;2023-12-04T07:46:23;2.20;99.90
31661;DHT22;18267;52.234;7.444;2023-12-04T07:48:49;2.10;99.90
31661;DHT22;18267;52.234;7.444;2023-12-04T07:51:14;2.10;99.90
31661;DHT22;18267;52.234;7.444;2023-12-04T07:53:40;2.10;99.90
31661;DHT22;18267;52.234;7.444;2023-12-04T07:56:06;2.20;99.90
31661;DHT22;18267;52.234;7.444;2023-12-04T07:58:32;2.10;99.90
31661;DHT22;18267;52.234;7.444;2023-12-04T08:00:58;2.20;99.90
31661;DHT22;18267;52.234;7.444;2023-12-04T08:03:24;2.30;99.90
31661;DHT22;18267;52.234;7.444;2023-12-04T08:05:51;2.30;99.90
31661;DHT22;18267;52.234;7.444;2023-12-04T08:08:16;2.30;99.90
31661;DHT22;18267;52.234;7.444;2023-12-04T08:10:42;2.30;99.90
31661;DHT22;18267;52.234;7.444;2023-12-04T08:13:07;2.30;99.90
31661;DHT22;18267;52.234;7.444;2023-12-04T08:15:33;2.30;99.90
31661;DHT22;18267;52.234;7.444;2023-12-04T08:17:58;2.30;99.90
31661;DHT22;18267;52.234;7.444;2023-12-04T08:20:25;2.30;99.90
31661;DHT22;18267;52.234;7.444;2023-12-04T08:22:51;2.30;99.90
31661;DHT22;18267;52.234;7.444;2023-12-04T08:25:16;2.40;99.90
31661;DHT22;18267;52.234;7.444;2023-12-04T08:27:42;2.40;99.90
31661;DHT22;18267;52.234;7.444;2023-12-04T08:30:08;2.30;99.90
31661;DHT22;18267;52.234;7.444;2023-12-04T08:32:34;2.50;99.90
31661;DHT22;18267;52.234;7.444;2023-12-04T08:34:59;2.40;99.90
31661;DHT22;18267;52.234;7.444;2023-12-04T08:37:25;2.50;99.90
31661;DHT22;18267;52.234;7.444;2023-12-04T08:39:50;2.50;99.90
31661;DHT22;18267;52.234;7.444;2023-12-04T08:42:16;2.40;99.90
31661;DHT22;18267;52.234;7.444;2023-12-04T08:44:41;2.40;99.90
31661;DHT22;18267;52.234;7.444;2023-12-04T08:47:08;2.40;99.90
31661;DHT22;18267;52.234;7.444;2023-12-04T08:49:33;2.50;99.90
31661;DHT22;18267;52.234;7.444;2023-12-04T08:51:59;2.50;99.90
31661;DHT22;18267;52.234;7.444;2023-12-04T08:54:25;2.60;99.90
31661;DHT22;18267;52.234;7.444;2023-12-04T08:56:50;2.70;99.90
31661;DHT22;18267;52.234;7.444;2023-12-04T08:59:16;2.60;99.90
31661;DHT22;18267;52.234;7.444;2023-12-04T09:01:42;2.50;99.90
31661;DHT22;18267;52.234;7.444;2023-12-04T09:04:09;2.50;99.90
31661;DHT22;18267;52.234;7.444;2023-12-04T09:06:35;2.40;99.90
31661;DHT22;18267;52.234;7.444;2023-12-04T09:09:00;2.60;99.90
31661;DHT22;18267;52.234;7.444;2023-12-04T09:11:26;2.60;99.90
31661;DHT22;18267;52.234;7.444;2023-12-04T09:13:51;2.50;99.90
31661;DHT22;18267;52.234;7.444;2023-12-04T09:16:17;2.60;99.90
31661;DHT22;18267;52.234;7.444;2023-12-04T09:18:42;2.60;99.90
31661;DHT22;18267;52.234;7.444;2023-12-04T09:21:08;2.70;99.90
31661;DHT22;18267;52.234;7.444;2023-12-04T09:23:35;2.60;99.90
31661;DHT22;18267;52.234;7.444;2023-12-04T09:26:00;2.80;99.90
31661;DHT22;18267;52.234;7.444;2023-12-04T09:28:26;2.80;99.90
31661;DHT22;18267;52.234;7.444;2023-12-04T09:30:51;2.90;99.90
31661;DHT22;18267;52.234;7.444;2023-12-04T09:33:17;2.90;99.90
31661;DHT22;18267;52.234;7.444;2023-12-04T09:35:42;3.00;99.90
31661;DHT22;18267;52.234;7.444;2023-12-04T09:38:09;3.10;99.90
31661;DHT22;18267;52.234;7.444;2023-12-04T09:40:34;3.00;99.90
31661;DHT22;18267;52.234;7.444;2023-12-04T09:43:00;3.00;99.90
31661;DHT22;18267;52.234;7.444;2023-12-04T09:45:26;3.00;99.90
31661;DHT22;18267;52.234;7.444;2023-12-04T09:47:55;3.00;99.90
31661;DHT22;18267;52.234;7.444;2023-12-04T09:50:21;3.00;99.90
31661;DHT22;18267;52.234;7.444;2023-12-04T09:52:51;3.00;99.90
31661;DHT22;18267;52.234;7.444;2023-12-04T09:55:18;3.00;99.90
31661;DHT22;18267;52.234;7.444;2023-12-04T09:57:46;3.00;99.90
31661;DHT22;18267;52.234;7.444;2023-12-04T10:00:14;2.90;99.90
31661;DHT22;18267;52.234;7.444;2023-12-04T10:02:41;3.10;99.90
31661;DHT22;18267;52.234;7.444;2023-12-04T10:05:07;3.10;99.90
31661;DHT22;18267;52.234;7.444;2023-12-04T10:07:33;3.00;99.90
31661;DHT22;18267;52.234;7.444;2023-12-04T10:09:59;3.10;99.90
31661;DHT22;18267;52.234;7.444;2023-12-04T10:12:25;3.10;99.90
31661;DHT22;18267;52.234;7.444;2023-12-04T10:15:06;3.00;99.90
31661;DHT22;18267;52.234;7.444;2023-12-04T10:17:36;3.00;99.90
31661;DHT22;18267;52.234;7.444;2023-12-04T10:22:39;3.10;99.90
31661;DHT22;18267;52.234;7.444;2023-12-04T10:25:15;3.10;99.90
31661;DHT22;18267;52.234;7.444;2023-12-04T10:27:41;3.20;99.90
31661;DHT22;18267;52.234;7.444;2023-12-04T10:30:07;3.20;99.90
31661;DHT22;18267;52.234;7.444;2023-12-04T10:32:42;3.30;99.90
31661;DHT22;18267;52.234;7.444;2023-12-04T10:35:07;3.20;99.90
31661;DHT22;18267;52.234;7.444;2023-12-04T10:37:36;3.20;99.90
31661;DHT22;18267;52.234;7.444;2023-12-04T10:40:02;3.10;99.90
31661;DHT22;18267;52.234;7.444;2023-12-04T10:42:30;3.20;99.90
31661;DHT22;18267;52.234;7.444;2023-12-04T10:44:59;3.10;99.90
31661;DHT22;18267;52.234;7.444;2023-12-04T10:47:25;3.30;99.90
31661;DHT22;18267;52.234;7.444;2023-12-04T10:49:52;3.30;99.90
31661;DHT22;18267;52.234;7.444;2023-12-04T10:52:18;3.40;99.90
31661;DHT22;18267;52.234;7.444;2023-12-04T10:54:50;3.40;99.90
31661;DHT22;18267;52.234;7.444;2023-12-04T10:57:26;3.50;99.90
31661;DHT22;18267;52.234;7.444;2023-12-04T10:59:57;3.40;99.90
31661;DHT22;18267;52.234;7.444;2023-12-04T11:02:26;3.30;99.90
31661;DHT22;18267;52.234;7.444;2023-12-04T11:04:55;3.40;99.90
31661;DHT22;18267;52.234;7.444;2023-12-04T11:07:23;3.30;99.90
31661;DHT22;18267;52.234;7.444;2023-12-04T11:09:50;3.40;99.90
31661;DHT22;18267;52.234;7.444;2023-12-04T11:12:18;3.50;99.90
31661;DHT22;18267;52.234;7.444;2023-12-04T11:14:52;3.50;99.90
31661;DHT22;18267;52.234;7.444;2023-12-04T11:17:19;3.50;99.90
31661;DHT22;18267;52.234;7.444;2023-12-04T11:19:59;3.50;99.90
31661;DHT22;18267;52.234;7.444;2023-12-04T11:22:25;3.60;99.90
31661;DHT22;18267;52.234;7.444;2023-12-04T11:24:52;3.40;99.90
31661;DHT22;18267;52.234;7.444;2023-12-04T11:27:18;3.40;99.90
31661;DHT22;18267;52.234;7.444;2023-12-04T11:29:45;3.50;99.90
31661;DHT22;18267;52.234;7.444;2023-12-04T11:32:15;3.60;99.90
31661;DHT22;18267;52.234;7.444;2023-12-04T11:34:54;3.60;99.90
31661;DHT22;18267;52.234;7.444;2023-12-04T11:37:21;3.60;99.90
31661;DHT22;18267;52.234;7.444;2023-12-04T11:39:47;3.60;99.90
31661;DHT22;18267;52.234;7.444;2023-12-04T11:42:22;3.50;99.90
31661;DHT22;18267;52.234;7.444;2023-12-04T11:44:48;3.60;99.90
31661;DHT22;18267;52.234;7.444;2023-12-04T11:47:15;3.50;99.90
31661;DHT22;18267;52.234;7.444;2023-12-04T11:49:41;3.50;99.90
31661;DHT22;18267;52.234;7.444;2023-12-04T11:52:06;3.60;99.90
31661;DHT22;18267;52.234;7.444;2023-12-04T11:57:24;3.50;99.90
31661;DHT22;18267;52.234;7.444;2023-12-04T12:00:05;3.50;99.90
31661;DHT22;18267;52.234;7.444;2023-12-04T12:02:33;3.50;99.90
31661;DHT22;18267;52.234;7.444;2023-12-04T12:04:58;3.60;99.90
31661;DHT22;18267;52.234;7.444;2023-12-04T12:07:25;3.70;99.90
31661;DHT22;18267;52.234;7.444;2023-12-04T12:09:50;3.70;99.90
31661;DHT22;18267;52.234;7.444;2023-12-04T12:12:16;3.80;99.90
31661;DHT22;18267;52.234;7.444;2023-12-04T12:14:42;4.00;99.90
31661;DHT22;18267;52.234;7.444;2023-12-04T12:17:08;3.90;99.90
31661;DHT22;18267;52.234;7.444;2023-12-04T12:19:34;3.80;99.90
31661;DHT22;18267;52.234;7.444;2023-12-04T12:22:00;3.90;99.90
31661;DHT22;18267;52.234;7.444;2023-12-04T12:24:25;3.70;99.90
31661;DHT22;18267;52.234;7.444;2023-12-04T12:26:51;3.60;99.90
31661;DHT22;18267;52.234;7.444;2023-12-04T12:29:17;3.50;99.90
31661;DHT22;18267;52.234;7.444;2023-12-04T12:31:43;3.60;99.90
31661;DHT22;18267;52.234;7.444;2023-12-04T12:34:09;3.60;99.90
31661;DHT22;18267;52.234;7.444;2023-12-04T12:36:34;3.60;99.90
31661;DHT22;18267;52.234;7.444;2023-12-04T12:39:00;3.60;99.90
31661;DHT22;18267;52.234;7.444;2023-12-04T12:41:29;3.60;99.90
31661;DHT22;18267;52.234;7.444;2023-12-04T12:43:54;3.60;99.90
31661;DHT22;18267;52.234;7.444;2023-12-04T12:46:21;3.70;99.90
31661;DHT22;18267;52.234;7.444;2023-12-04T12:48:47;3.70;99.90
31661;DHT22;18267;52.234;7.444;2023-12-04T12:51:13;3.70;99.90
31661;DHT22;18267;52.234;7.444;2023-12-04T12:53:39;3.80;99.90
31661;DHT22;18267;52.234;7.444;2023-12-04T12:56:05;3.80;99.90
31661;DHT22;18267;52.234;7.444;2023-12-04T12:58:31;3.80;99.90
31661;DHT22;18267;52.234;7.444;2023-12-04T13:00:57;3.80;99.90
31661;DHT22;18267;52.234;7.444;2023-12-04T13:03:22;3.90;99.90
31661;DHT22;18267;52.234;7.444;2023-12-04T13:05:48;3.90;99.90
31661;DHT22;18267;52.234;7.444;2023-12-04T13:08:13;4.00;99.90
31661;DHT22;18267;52.234;7.444;2023-12-04T13:10:41;4.00;99.90
31661;DHT22;18267;52.234;7.444;2023-12-04T13:13:13;4.10;99.90
31661;DHT22;18267;52.234;7.444;2023-12-04T13:15:40;4.00;99.90
31661;DHT22;18267;52.234;7.444;2023-12-04T13:18:07;3.90;99.90
31661;DHT22;18267;52.234;7.444;2023-12-04T13:20:32;3.90;99.90
31661;DHT22;18267;52.234;7.444;2023-12-04T13:22:59;3.80;99.90
31661;DHT22;18267;52.234;7.444;2023-12-04T13:25:24;3.90;99.90
31661;DHT22;18267;52.234;7.444;2023-12-04T13:27:50;3.90;99.90
31661;DHT22;18267;52.234;7.444;2023-12-04T13:30:15;3.90;99.90
31661;DHT22;18267;52.234;7.444;2023-12-04T13:32:42;4.00;99.90
31661;DHT22;18267;52.234;7.444;2023-12-04T13:35:08;4.00;99.90
31661;DHT22;18267;52.234;7.444;2023-12-04T13:37:34;4.10;99.90
31661;DHT22;18267;52.234;7.444;2023-12-04T13:40:02;4.10;99.90
31661;DHT22;18267;52.234;7.444;2023-12-04T13:42:35;4.00;99.90
31661;DHT22;18267;52.234;7.444;2023-12-04T13:45:19;4.00;99.90
31661;DHT22;18267;52.234;7.444;2023-12-04T13:47:48;4.00;99.90
31661;DHT22;18267;52.234;7.444;2023-12-04T13:50:15;4.00;99.90
31661;DHT22;18267;52.234;7.444;2023-12-04T13:52:40;3.90;99.90
31661;DHT22;18267;52.234;7.444;2023-12-04T13:55:09;3.90;99.90
31661;DHT22;18267;52.234;7.444;2023-12-04T13:57:46;3.90;99.90
31661;DHT22;18267;52.234;7.444;2023-12-04T14:00:23;3.90;99.90
31661;DHT22;18267;52.234;7.444;2023-12-04T14:02:49;3.90;99.90
31661;DHT22;18267;52.234;7.444;2023-12-04T14:05:19;3.90;99.90
31661;DHT22;18267;52.234;7.444;2023-12-04T14:07:45;3.80;99.90
31661;DHT22;18267;52.234;7.444;2023-12-04T14:10:12;3.90;99.90
31661;DHT22;18267;52.234;7.444;2023-12-04T14:12:42;4.00;99.90
31661;DHT22;18267;52.234;7.444;2023-12-04T14:15:08;4.00;99.90
31661;DHT22;18267;52.234;7.444;2023-12-04T14:17:34;4.00;99.90
31661;DHT22;18267;52.234;7.444;2023-12-04T14:20:00;3.90;99.90
31661;DHT22;18267;52.234;7.444;2023-12-04T14:22:25;3.90;99.90
31661;DHT22;18267;52.234;7.444;2023-12-04T14:24:51;3.90;99.90
31661;DHT22;18267;52.234;7.444;2023-12-04T14:27:16;3.90;99.90
31661;DHT22;18267;52.234;7.444;2023-12-04T14:29:43;3.90;99.90
31661;DHT22;18267;52.234;7.444;2023-12-04T14:32:10;3.90;99.90
31661;DHT22;18267;52.234;7.444;2023-12-04T14:34:35;3.80;99.90
31661;DHT22;18267;52.234;7.444;2023-12-04T14:37:01;3.80;99.90
31661;DHT22;18267;52.234;7.444;2023-12-04T14:39:26;3.80;99.90
31661;DHT22;18267;52.234;7.444;2023-12-04T14:41:52;3.70;99.90
31661;DHT22;18267;52.234;7.444;2023-12-04T14:44:18;3.60;99.90
31661;DHT22;18267;52.234;7.444;2023-12-04T14:46:43;3.60;99.90
31661;DHT22;18267;52.234;7.444;2023-12-04T14:49:10;3.50;99.90
31661;DHT22;18267;52.234;7.444;2023-12-04T14:51:36;3.60;99.90
31661;DHT22;18267;52.234;7.444;2023-12-04T14:54:01;3.50;99.90
31661;DHT22;18267;52.234;7.444;2023-12-04T14:56:46;3.50;99.90
31661;DHT22;18267;52.234;7.444;2023-12-04T14:59:35;3.50;99.90
31661;DHT22;18267;52.234;7.444;2023-12-04T15:02:19;3.50;99.90
31661;DHT22;18267;52.234;7.444;2023-12-04T15:04:56;3.50;99.90
31661;DHT22;18267;52.234;7.444;2023-12-04T15:07:35;3.40;99.90
31661;DHT22;18267;52.234;7.444;2023-12-04T15:10:07;3.40;99.90
31661;DHT22;18267;52.234;7.444;2023-12-04T15:12:59;3.30;99.90
31661;DHT22;18267;52.234;7.444;2023-12-04T15:15:44;3.30;99.90
31661;DHT22;18267;52.234;7.444;2023-12-04T15:18:40;3.20;99.90
31661;DHT22;18267;52.234;7.444;2023-12-04T15:21:08;3.30;99.90
31661;DHT22;18267;52.234;7.444;2023-12-04T15:23:34;3.30;99.90
31661;DHT22;18267;52.234;7.444;2023-12-04T15:26:00;3.40;99.90
31661;DHT22;18267;52.234;7.444;2023-12-04T15:28:27;3.40;99.90
31661;DHT22;18267;52.234;7.444;2023-12-04T15:30:53;3.30;99.90
31661;DHT22;18267;52.234;7.444;2023-12-04T15:33:21;3.40;99.90
31661;DHT22;18267;52.234;7.444;2023-12-04T15:35:49;3.40;99.90
31661;DHT22;18267;52.234;7.444;2023-12-04T15:38:14;3.40;99.90
31661;DHT22;18267;52.234;7.444;2023-12-04T15:40:40;3.40;99.90
31661;DHT22;18267;52.234;7.444;2023-12-04T15:43:06;3.30;99.90
31661;DHT22;18267;52.234;7.444;2023-12-04T15:45:31;3.30;99.90
31661;DHT22;18267;52.234;7.444;2023-12-04T15:47:57;3.40;99.90